sensor_id;sensor_type;location;lat;lon;timestamp;P1;durP1;ratioP1;P2;durP2;ratioP2
12784;SDS011;6456;42.680;23.260;2022-07-10T00:00:25;10.97;;;10.07;;
12784;SDS011;6456;42.680;23.260;2022-07-10T00:02:53;11.37;;;10.37;;
12784;SDS011;6456;42.680;23.260;2022-07-10T00:05:21;11.67;;;10.63;;
12784;SDS011;6456;42.680;23.260;2022-07-10T00:07:48;11.83;;;10.63;;
12784;SDS011;6456;42.680;23.260;2022-07-10T00:10:15;12.33;;;11.27;;
12784;SDS011;6456;42.680;23.260;2022-07-10T00:12:43;11.73;;;10.70;;
12784;SDS011;6456;42.680;23.260;2022-07-10T00:15:15;11.57;;;10.57;;
12784;SDS011;6456;42.680;23.260;2022-07-10T00:17:42;12.23;;;11.10;;
12784;SDS011;6456;42.680;23.260;2022-07-10T00:20:10;11.83;;;10.60;;
12784;SDS011;6456;42.680;23.260;2022-07-10T00:22:38;12.10;;;11.00;;
12784;SDS011;6456;42.680;23.260;2022-07-10T00:25:09;12.47;;;11.27;;
12784;SDS011;6456;42.680;23.260;2022-07-10T00:27:37;11.37;;;10.47;;
12784;SDS011;6456;42.680;23.260;2022-07-10T00:30:04;12.17;;;11.07;;
12784;SDS011;6456;42.680;23.260;2022-07-10T00:32:34;11.80;;;10.67;;
12784;SDS011;6456;42.680;23.260;2022-07-10T00:35:01;11.67;;;10.67;;
12784;SDS011;6456;42.680;23.260;2022-07-10T00:37:28;12.20;;;10.97;;
12784;SDS011;6456;42.680;23.260;2022-07-10T00:39:56;12.27;;;11.17;;
12784;SDS011;6456;42.680;23.260;2022-07-10T00:42:23;10.97;;;9.97;;
12784;SDS011;6456;42.680;23.260;2022-07-10T00:44:49;12.23;;;10.87;;
12784;SDS011;6456;42.680;23.260;2022-07-10T00:47:17;10.77;;;9.87;;
12784;SDS011;6456;42.680;23.260;2022-07-10T00:49:46;10.60;;;9.73;;
12784;SDS011;6456;42.680;23.260;2022-07-10T00:52:14;11.00;;;9.90;;
12784;SDS011;6456;42.680;23.260;2022-07-10T00:54:43;12.10;;;10.37;;
12784;SDS011;6456;42.680;23.260;2022-07-10T00:57:12;11.20;;;10.20;;
12784;SDS011;6456;42.680;23.260;2022-07-10T00:59:40;10.83;;;9.90;;
12784;SDS011;6456;42.680;23.260;2022-07-10T01:02:08;15.00;;;10.47;;
12784;SDS011;6456;42.680;23.260;2022-07-10T01:04:36;11.50;;;10.37;;
12784;SDS011;6456;42.680;23.260;2022-07-10T01:07:05;11.07;;;10.13;;
12784;SDS011;6456;42.680;23.260;2022-07-10T01:09:32;10.70;;;9.80;;
12784;SDS011;6456;42.680;23.260;2022-07-10T01:11:59;12.03;;;10.93;;
12784;SDS011;6456;42.680;23.260;2022-07-10T01:14:27;11.50;;;10.50;;
12784;SDS011;6456;42.680;23.260;2022-07-10T01:16:55;12.03;;;10.93;;
12784;SDS011;6456;42.680;23.260;2022-07-10T01:19:21;11.53;;;10.43;;
12784;SDS011;6456;42.680;23.260;2022-07-10T01:21:50;11.37;;;10.37;;
12784;SDS011;6456;42.680;23.260;2022-07-10T01:24:17;11.27;;;10.27;;
12784;SDS011;6456;42.680;23.260;2022-07-10T01:26:44;12.00;;;10.83;;
12784;SDS011;6456;42.680;23.260;2022-07-10T01:29:11;11.63;;;10.63;;
12784;SDS011;6456;42.680;23.260;2022-07-10T01:31:38;10.17;;;9.27;;
12784;SDS011;6456;42.680;23.260;2022-07-10T01:34:06;11.97;;;10.00;;
12784;SDS011;6456;42.680;23.260;2022-07-10T01:36:35;10.63;;;9.73;;
12784;SDS011;6456;42.680;23.260;2022-07-10T01:39:04;10.70;;;9.60;;
12784;SDS011;6456;42.680;23.260;2022-07-10T01:41:32;11.67;;;10.57;;
12784;SDS011;6456;42.680;23.260;2022-07-10T01:43:59;11.13;;;10.03;;
12784;SDS011;6456;42.680;23.260;2022-07-10T01:46:27;11.77;;;10.73;;
12784;SDS011;6456;42.680;23.260;2022-07-10T01:48:54;10.80;;;9.90;;
12784;SDS011;6456;42.680;23.260;2022-07-10T01:51:21;10.23;;;9.43;;
12784;SDS011;6456;42.680;23.260;2022-07-10T01:53:48;11.10;;;9.97;;
12784;SDS011;6456;42.680;23.260;2022-07-10T01:56:17;9.87;;;9.03;;
12784;SDS011;6456;42.680;23.260;2022-07-10T01:58:44;12.10;;;10.13;;
12784;SDS011;6456;42.680;23.260;2022-07-10T02:01:12;10.27;;;9.37;;
12784;SDS011;6456;42.680;23.260;2022-07-10T02:03:39;10.27;;;9.20;;
12784;SDS011;6456;42.680;23.260;2022-07-10T02:06:23;10.93;;;9.70;;
12784;SDS011;6456;42.680;23.260;2022-07-10T02:08:50;9.87;;;8.97;;
12784;SDS011;6456;42.680;23.260;2022-07-10T02:11:19;10.73;;;9.67;;
12784;SDS011;6456;42.680;23.260;2022-07-10T02:13:46;11.60;;;10.50;;
12784;SDS011;6456;42.680;23.260;2022-07-10T02:16:13;13.20;;;9.80;;
12784;SDS011;6456;42.680;23.260;2022-07-10T02:18:40;10.73;;;9.80;;
12784;SDS011;6456;42.680;23.260;2022-07-10T02:21:07;10.97;;;10.07;;
12784;SDS011;6456;42.680;23.260;2022-07-10T02:23:35;10.70;;;9.80;;
12784;SDS011;6456;42.680;23.260;2022-07-10T02:26:04;10.43;;;9.53;;
12784;SDS011;6456;42.680;23.260;2022-07-10T02:28:32;11.40;;;9.83;;
12784;SDS011;6456;42.680;23.260;2022-07-10T02:30:59;10.97;;;9.97;;
12784;SDS011;6456;42.680;23.260;2022-07-10T02:33:26;10.90;;;9.80;;
12784;SDS011;6456;42.680;23.260;2022-07-10T02:35:53;11.00;;;10.00;;
12784;SDS011;6456;42.680;23.260;2022-07-10T02:38:20;10.20;;;9.33;;
12784;SDS011;6456;42.680;23.260;2022-07-10T02:40:47;9.57;;;8.67;;
12784;SDS011;6456;42.680;23.260;2022-07-10T02:43:14;10.63;;;9.73;;
12784;SDS011;6456;42.680;23.260;2022-07-10T02:45:42;10.47;;;9.40;;
12784;SDS011;6456;42.680;23.260;2022-07-10T02:48:09;9.77;;;8.87;;
12784;SDS011;6456;42.680;23.260;2022-07-10T02:50:36;10.07;;;9.27;;
12784;SDS011;6456;42.680;23.260;2022-07-10T02:53:03;9.17;;;8.37;;
12784;SDS011;6456;42.680;23.260;2022-07-10T02:55:31;9.57;;;8.67;;
12784;SDS011;6456;42.680;23.260;2022-07-10T02:57:58;10.23;;;9.27;;
12784;SDS011;6456;42.680;23.260;2022-07-10T03:00:25;10.17;;;9.27;;
12784;SDS011;6456;42.680;23.260;2022-07-10T03:02:54;9.70;;;8.80;;
12784;SDS011;6456;42.680;23.260;2022-07-10T03:05:21;9.33;;;8.33;;
12784;SDS011;6456;42.680;23.260;2022-07-10T03:07:48;10.43;;;9.27;;
12784;SDS011;6456;42.680;23.260;2022-07-10T03:10:15;9.63;;;8.80;;
12784;SDS011;6456;42.680;23.260;2022-07-10T03:12:42;10.03;;;9.20;;
12784;SDS011;6456;42.680;23.260;2022-07-10T03:15:09;10.10;;;9.30;;
12784;SDS011;6456;42.680;23.260;2022-07-10T03:17:37;10.30;;;9.00;;
12784;SDS011;6456;42.680;23.260;2022-07-10T03:20:07;9.90;;;9.00;;
12784;SDS011;6456;42.680;23.260;2022-07-10T03:22:35;10.60;;;9.47;;
12784;SDS011;6456;42.680;23.260;2022-07-10T03:25:02;10.40;;;9.50;;
12784;SDS011;6456;42.680;23.260;2022-07-10T03:27:30;10.80;;;9.73;;
12784;SDS011;6456;42.680;23.260;2022-07-10T03:29:57;11.03;;;10.03;;
12784;SDS011;6456;42.680;23.260;2022-07-10T03:32:24;11.50;;;9.23;;
12784;SDS011;6456;42.680;23.260;2022-07-10T03:34:51;10.53;;;9.57;;
12784;SDS011;6456;42.680;23.260;2022-07-10T03:37:20;10.47;;;9.57;;
12784;SDS011;6456;42.680;23.260;2022-07-10T03:39:47;11.67;;;9.50;;
12784;SDS011;6456;42.680;23.260;2022-07-10T03:42:14;10.57;;;9.60;;
12784;SDS011;6456;42.680;23.260;2022-07-10T03:44:41;10.30;;;9.20;;
12784;SDS011;6456;42.680;23.260;2022-07-10T03:47:08;9.40;;;8.60;;
12784;SDS011;6456;42.680;23.260;2022-07-10T03:49:35;10.57;;;9.57;;
12784;SDS011;6456;42.680;23.260;2022-07-10T03:52:04;10.40;;;8.63;;
12784;SDS011;6456;42.680;23.260;2022-07-10T03:54:32;10.40;;;9.60;;
12784;SDS011;6456;42.680;23.260;2022-07-10T03:57:00;9.40;;;8.60;;
12784;SDS011;6456;42.680;23.260;2022-07-10T03:59:44;11.70;;;9.23;;
12784;SDS011;6456;42.680;23.260;2022-07-10T04:02:11;8.80;;;8.00;;
12784;SDS011;6456;42.680;23.260;2022-07-10T04:04:38;9.70;;;8.80;;
12784;SDS011;6456;42.680;23.260;2022-07-10T04:07:05;9.10;;;8.27;;
12784;SDS011;6456;42.680;23.260;2022-07-10T04:09:33;9.63;;;8.43;;
12784;SDS011;6456;42.680;23.260;2022-07-10T04:12:00;9.43;;;8.57;;
12784;SDS011;6456;42.680;23.260;2022-07-10T04:14:27;9.23;;;8.43;;
12784;SDS011;6456;42.680;23.260;2022-07-10T04:16:54;9.43;;;8.63;;
12784;SDS011;6456;42.680;23.260;2022-07-10T04:19:21;11.10;;;8.40;;
12784;SDS011;6456;42.680;23.260;2022-07-10T04:21:48;9.33;;;8.23;;
12784;SDS011;6456;42.680;23.260;2022-07-10T04:24:16;8.83;;;8.03;;
12784;SDS011;6456;42.680;23.260;2022-07-10T04:26:44;8.70;;;8.00;;
12784;SDS011;6456;42.680;23.260;2022-07-10T04:29:11;7.77;;;7.17;;
12784;SDS011;6456;42.680;23.260;2022-07-10T04:31:38;8.03;;;7.23;;
12784;SDS011;6456;42.680;23.260;2022-07-10T04:34:05;8.03;;;7.33;;
12784;SDS011;6456;42.680;23.260;2022-07-10T04:36:32;8.27;;;6.80;;
12784;SDS011;6456;42.680;23.260;2022-07-10T04:38:59;8.30;;;7.47;;
12784;SDS011;6456;42.680;23.260;2022-07-10T04:41:26;9.13;;;7.73;;
12784;SDS011;6456;42.680;23.260;2022-07-10T04:43:54;7.83;;;7.13;;
12784;SDS011;6456;42.680;23.260;2022-07-10T04:46:21;8.57;;;7.70;;
12784;SDS011;6456;42.680;23.260;2022-07-10T04:48:48;8.17;;;7.33;;
12784;SDS011;6456;42.680;23.260;2022-07-10T04:51:15;8.77;;;7.30;;
12784;SDS011;6456;42.680;23.260;2022-07-10T04:53:42;7.93;;;7.07;;
12784;SDS011;6456;42.680;23.260;2022-07-10T04:56:09;7.97;;;7.27;;
12784;SDS011;6456;42.680;23.260;2022-07-10T04:58:36;9.33;;;7.60;;
12784;SDS011;6456;42.680;23.260;2022-07-10T05:01:05;7.77;;;7.07;;
12784;SDS011;6456;42.680;23.260;2022-07-10T05:03:31;7.83;;;7.13;;
12784;SDS011;6456;42.680;23.260;2022-07-10T05:05:58;7.47;;;6.87;;
12784;SDS011;6456;42.680;23.260;2022-07-10T05:08:25;8.33;;;7.37;;
12784;SDS011;6456;42.680;23.260;2022-07-10T05:10:53;7.23;;;6.63;;
12784;SDS011;6456;42.680;23.260;2022-07-10T05:13:19;8.13;;;7.43;;
12784;SDS011;6456;42.680;23.260;2022-07-10T05:15:46;7.57;;;6.87;;
12784;SDS011;6456;42.680;23.260;2022-07-10T05:18:15;6.73;;;6.13;;
12784;SDS011;6456;42.680;23.260;2022-07-10T05:20:42;7.60;;;6.90;;
12784;SDS011;6456;42.680;23.260;2022-07-10T05:23:10;7.93;;;7.07;;
12784;SDS011;6456;42.680;23.260;2022-07-10T05:25:37;9.30;;;6.93;;
12784;SDS011;6456;42.680;23.260;2022-07-10T05:28:05;7.63;;;6.33;;
12784;SDS011;6456;42.680;23.260;2022-07-10T05:30:32;7.00;;;6.40;;
12784;SDS011;6456;42.680;23.260;2022-07-10T05:32:59;7.10;;;6.50;;
12784;SDS011;6456;42.680;23.260;2022-07-10T05:35:28;8.17;;;7.33;;
12784;SDS011;6456;42.680;23.260;2022-07-10T05:37:56;7.30;;;6.70;;
12784;SDS011;6456;42.680;23.260;2022-07-10T05:40:23;7.57;;;6.80;;
12784;SDS011;6456;42.680;23.260;2022-07-10T05:42:50;7.17;;;6.47;;
12784;SDS011;6456;42.680;23.260;2022-07-10T05:45:17;7.17;;;6.50;;
12784;SDS011;6456;42.680;23.260;2022-07-10T05:47:44;6.33;;;5.83;;
12784;SDS011;6456;42.680;23.260;2022-07-10T05:50:11;6.17;;;5.67;;
12784;SDS011;6456;42.680;23.260;2022-07-10T05:52:40;9.30;;;6.67;;
12784;SDS011;6456;42.680;23.260;2022-07-10T05:55:07;7.00;;;6.40;;
12784;SDS011;6456;42.680;23.260;2022-07-10T05:57:34;7.27;;;5.80;;
12784;SDS011;6456;42.680;23.260;2022-07-10T06:00:02;6.30;;;5.70;;
12784;SDS011;6456;42.680;23.260;2022-07-10T06:02:30;5.90;;;5.50;;
12784;SDS011;6456;42.680;23.260;2022-07-10T06:04:57;7.13;;;5.53;;
12784;SDS011;6456;42.680;23.260;2022-07-10T06:07:24;7.23;;;5.60;;
12784;SDS011;6456;42.680;23.260;2022-07-10T06:09:53;6.83;;;6.10;;
12784;SDS011;6456;42.680;23.260;2022-07-10T06:12:22;6.20;;;5.60;;
12784;SDS011;6456;42.680;23.260;2022-07-10T06:14:49;5.70;;;5.30;;
12784;SDS011;6456;42.680;23.260;2022-07-10T06:17:16;5.67;;;5.27;;
12784;SDS011;6456;42.680;23.260;2022-07-10T06:19:43;6.90;;;5.27;;
12784;SDS011;6456;42.680;23.260;2022-07-10T06:22:10;5.13;;;4.73;;
12784;SDS011;6456;42.680;23.260;2022-07-10T06:24:56;5.60;;;5.10;;
12784;SDS011;6456;42.680;23.260;2022-07-10T06:27:24;5.23;;;4.80;;
12784;SDS011;6456;42.680;23.260;2022-07-10T06:29:51;4.90;;;4.50;;
12784;SDS011;6456;42.680;23.260;2022-07-10T06:32:18;5.57;;;4.27;;
12784;SDS011;6456;42.680;23.260;2022-07-10T06:34:45;4.80;;;4.37;;
12784;SDS011;6456;42.680;23.260;2022-07-10T06:37:12;4.70;;;4.30;;
12784;SDS011;6456;42.680;23.260;2022-07-10T06:39:39;4.67;;;4.20;;
12784;SDS011;6456;42.680;23.260;2022-07-10T06:42:07;4.67;;;4.37;;
12784;SDS011;6456;42.680;23.260;2022-07-10T06:44:34;4.60;;;4.20;;
12784;SDS011;6456;42.680;23.260;2022-07-10T06:47:01;4.57;;;4.10;;
12784;SDS011;6456;42.680;23.260;2022-07-10T06:49:46;6.80;;;4.33;;
12784;SDS011;6456;42.680;23.260;2022-07-10T06:52:14;4.87;;;4.47;;
12784;SDS011;6456;42.680;23.260;2022-07-10T06:54:42;4.80;;;4.50;;
12784;SDS011;6456;42.680;23.260;2022-07-10T06:57:11;5.03;;;4.07;;
12784;SDS011;6456;42.680;23.260;2022-07-10T06:59:38;5.83;;;4.60;;
12784;SDS011;6456;42.680;23.260;2022-07-10T07:02:05;4.33;;;4.03;;
12784;SDS011;6456;42.680;23.260;2022-07-10T07:04:32;4.70;;;4.20;;
12784;SDS011;6456;42.680;23.260;2022-07-10T07:06:59;4.77;;;4.37;;
12784;SDS011;6456;42.680;23.260;2022-07-10T07:09:28;4.73;;;4.30;;
12784;SDS011;6456;42.680;23.260;2022-07-10T07:11:55;4.53;;;4.23;;
12784;SDS011;6456;42.680;23.260;2022-07-10T07:14:24;5.83;;;4.40;;
12784;SDS011;6456;42.680;23.260;2022-07-10T07:16:52;5.07;;;4.50;;
12784;SDS011;6456;42.680;23.260;2022-07-10T07:19:26;5.00;;;3.77;;
12784;SDS011;6456;42.680;23.260;2022-07-10T07:22:20;6.43;;;3.77;;
12784;SDS011;6456;42.680;23.260;2022-07-10T07:25:04;4.80;;;3.73;;
12784;SDS011;6456;42.680;23.260;2022-07-10T07:27:33;4.33;;;3.97;;
12784;SDS011;6456;42.680;23.260;2022-07-10T07:30:05;8.80;;;4.10;;
12784;SDS011;6456;42.680;23.260;2022-07-10T07:32:35;4.90;;;3.90;;
12784;SDS011;6456;42.680;23.260;2022-07-10T07:35:03;4.53;;;3.93;;
12784;SDS011;6456;42.680;23.260;2022-07-10T07:37:35;4.03;;;3.73;;
12784;SDS011;6456;42.680;23.260;2022-07-10T07:40:06;3.80;;;3.50;;
12784;SDS011;6456;42.680;23.260;2022-07-10T07:42:34;4.83;;;3.83;;
12784;SDS011;6456;42.680;23.260;2022-07-10T07:45:04;5.10;;;3.67;;
12784;SDS011;6456;42.680;23.260;2022-07-10T07:47:55;4.20;;;3.80;;
12784;SDS011;6456;42.680;23.260;2022-07-10T07:50:24;4.70;;;3.70;;
12784;SDS011;6456;42.680;23.260;2022-07-10T07:52:53;4.30;;;3.17;;
12784;SDS011;6456;42.680;23.260;2022-07-10T07:55:21;3.50;;;3.20;;
12784;SDS011;6456;42.680;23.260;2022-07-10T07:57:50;3.23;;;3.03;;
12784;SDS011;6456;42.680;23.260;2022-07-10T08:00:19;3.90;;;3.50;;
12784;SDS011;6456;42.680;23.260;2022-07-10T08:02:48;3.03;;;2.83;;
12784;SDS011;6456;42.680;23.260;2022-07-10T08:05:17;3.30;;;3.00;;
12784;SDS011;6456;42.680;23.260;2022-07-10T08:07:45;3.63;;;3.33;;
12784;SDS011;6456;42.680;23.260;2022-07-10T08:10:14;3.43;;;3.23;;
12784;SDS011;6456;42.680;23.260;2022-07-10T08:12:43;3.13;;;2.90;;
12784;SDS011;6456;42.680;23.260;2022-07-10T08:15:12;3.17;;;2.87;;
12784;SDS011;6456;42.680;23.260;2022-07-10T08:17:40;3.13;;;2.70;;
12784;SDS011;6456;42.680;23.260;2022-07-10T08:20:10;3.60;;;3.30;;
12784;SDS011;6456;42.680;23.260;2022-07-10T08:22:41;3.60;;;2.87;;
12784;SDS011;6456;42.680;23.260;2022-07-10T08:25:09;3.27;;;2.90;;
12784;SDS011;6456;42.680;23.260;2022-07-10T08:27:36;3.55;;;2.90;;
12784;SDS011;6456;42.680;23.260;2022-07-10T08:30:04;3.45;;;2.72;;
12784;SDS011;6456;42.680;23.260;2022-07-10T08:32:32;3.40;;;3.10;;
12784;SDS011;6456;42.680;23.260;2022-07-10T08:34:59;3.35;;;3.15;;
12784;SDS011;6456;42.680;23.260;2022-07-10T08:37:26;3.40;;;3.20;;
12784;SDS011;6456;42.680;23.260;2022-07-10T08:39:55;4.88;;;3.20;;
12784;SDS011;6456;42.680;23.260;2022-07-10T08:42:22;2.90;;;2.70;;
12784;SDS011;6456;42.680;23.260;2022-07-10T08:44:50;4.00;;;2.95;;
12784;SDS011;6456;42.680;23.260;2022-07-10T08:47:20;4.90;;;2.88;;
12784;SDS011;6456;42.680;23.260;2022-07-10T08:49:48;4.20;;;2.97;;
12784;SDS011;6456;42.680;23.260;2022-07-10T08:52:20;3.65;;;2.67;;
12784;SDS011;6456;42.680;23.260;2022-07-10T08:54:52;3.40;;;3.10;;
12784;SDS011;6456;42.680;23.260;2022-07-10T08:57:22;4.53;;;3.08;;
12784;SDS011;6456;42.680;23.260;2022-07-10T08:59:50;3.70;;;3.05;;
12784;SDS011;6456;42.680;23.260;2022-07-10T09:02:17;3.38;;;2.88;;
12784;SDS011;6456;42.680;23.260;2022-07-10T09:04:44;5.18;;;2.97;;
12784;SDS011;6456;42.680;23.260;2022-07-10T09:07:11;2.97;;;2.60;;
12784;SDS011;6456;42.680;23.260;2022-07-10T09:09:50;2.72;;;2.53;;
12784;SDS011;6456;42.680;23.260;2022-07-10T09:12:21;2.85;;;2.47;;
12784;SDS011;6456;42.680;23.260;2022-07-10T09:14:48;2.88;;;2.67;;
12784;SDS011;6456;42.680;23.260;2022-07-10T09:17:15;3.95;;;3.03;;
12784;SDS011;6456;42.680;23.260;2022-07-10T09:19:42;4.32;;;3.20;;
12784;SDS011;6456;42.680;23.260;2022-07-10T09:22:10;3.85;;;2.95;;
12784;SDS011;6456;42.680;23.260;2022-07-10T09:24:40;5.00;;;2.83;;
12784;SDS011;6456;42.680;23.260;2022-07-10T09:27:09;3.25;;;2.90;;
12784;SDS011;6456;42.680;23.260;2022-07-10T09:29:48;3.42;;;2.55;;
12784;SDS011;6456;42.680;23.260;2022-07-10T09:32:19;2.70;;;2.50;;
12784;SDS011;6456;42.680;23.260;2022-07-10T09:34:47;3.38;;;2.83;;
12784;SDS011;6456;42.680;23.260;2022-07-10T09:37:21;6.20;;;2.63;;
12784;SDS011;6456;42.680;23.260;2022-07-10T09:39:56;2.80;;;2.60;;
12784;SDS011;6456;42.680;23.260;2022-07-10T09:42:25;3.10;;;2.90;;
12784;SDS011;6456;42.680;23.260;2022-07-10T09:47:58;5.13;;;2.53;;
12784;SDS011;6456;42.680;23.260;2022-07-10T09:50:29;3.95;;;2.40;;
12784;SDS011;6456;42.680;23.260;2022-07-10T09:52:58;3.55;;;2.60;;
12784;SDS011;6456;42.680;23.260;2022-07-10T09:55:27;2.95;;;2.67;;
12784;SDS011;6456;42.680;23.260;2022-07-10T09:57:56;2.55;;;2.35;;
12784;SDS011;6456;42.680;23.260;2022-07-10T10:00:26;2.92;;;2.53;;
12784;SDS011;6456;42.680;23.260;2022-07-10T10:06:16;4.47;;;2.58;;
12784;SDS011;6456;42.680;23.260;2022-07-10T10:08:48;3.10;;;2.80;;
12784;SDS011;6456;42.680;23.260;2022-07-10T10:11:23;2.60;;;2.50;;
12784;SDS011;6456;42.680;23.260;2022-07-10T10:13:53;2.97;;;2.55;;
12784;SDS011;6456;42.680;23.260;2022-07-10T10:16:27;2.40;;;2.20;;
12784;SDS011;6456;42.680;23.260;2022-07-10T10:18:55;3.40;;;2.30;;
12784;SDS011;6456;42.680;23.260;2022-07-10T10:21:42;5.03;;;2.47;;
12784;SDS011;6456;42.680;23.260;2022-07-10T10:24:14;3.72;;;2.42;;
12784;SDS011;6456;42.680;23.260;2022-07-10T10:26:43;2.08;;;1.98;;
12784;SDS011;6456;42.680;23.260;2022-07-10T10:29:11;2.60;;;2.38;;
12784;SDS011;6456;42.680;23.260;2022-07-10T10:31:44;2.40;;;2.10;;
12784;SDS011;6456;42.680;23.260;2022-07-10T10:34:11;4.55;;;2.60;;
12784;SDS011;6456;42.680;23.260;2022-07-10T10:36:51;2.42;;;2.22;;
12784;SDS011;6456;42.680;23.260;2022-07-10T10:39:18;3.08;;;2.53;;
12784;SDS011;6456;42.680;23.260;2022-07-10T10:41:47;2.80;;;2.53;;
12784;SDS011;6456;42.680;23.260;2022-07-10T10:44:19;3.05;;;2.38;;
12784;SDS011;6456;42.680;23.260;2022-07-10T10:47:01;4.70;;;2.88;;
12784;SDS011;6456;42.680;23.260;2022-07-10T10:52:29;3.42;;;2.28;;
12784;SDS011;6456;42.680;23.260;2022-07-10T10:55:00;2.30;;;2.10;;
12784;SDS011;6456;42.680;23.260;2022-07-10T10:57:36;2.45;;;2.30;;
12784;SDS011;6456;42.680;23.260;2022-07-10T11:00:11;3.65;;;2.50;;
12784;SDS011;6456;42.680;23.260;2022-07-10T11:02:43;3.40;;;2.10;;
12784;SDS011;6456;42.680;23.260;2022-07-10T11:08:07;3.38;;;2.30;;
12784;SDS011;6456;42.680;23.260;2022-07-10T11:10:34;2.63;;;2.28;;
12784;SDS011;6456;42.680;23.260;2022-07-10T11:13:03;2.13;;;2.00;;
12784;SDS011;6456;42.680;23.260;2022-07-10T11:15:32;2.00;;;1.90;;
12784;SDS011;6456;42.680;23.260;2022-07-10T11:18:03;3.92;;;2.20;;
12784;SDS011;6456;42.680;23.260;2022-07-10T11:20:32;2.60;;;2.20;;
12784;SDS011;6456;42.680;23.260;2022-07-10T11:23:09;2.35;;;2.15;;
12784;SDS011;6456;42.680;23.260;2022-07-10T11:25:45;2.30;;;2.10;;
12784;SDS011;6456;42.680;23.260;2022-07-10T11:28:28;2.15;;;1.90;;
12784;SDS011;6456;42.680;23.260;2022-07-10T11:31:07;2.45;;;2.20;;
12784;SDS011;6456;42.680;23.260;2022-07-10T11:33:40;3.25;;;2.00;;
12784;SDS011;6456;42.680;23.260;2022-07-10T11:36:12;2.20;;;2.00;;
12784;SDS011;6456;42.680;23.260;2022-07-10T11:38:40;2.25;;;2.13;;
12784;SDS011;6456;42.680;23.260;2022-07-10T11:41:14;1.90;;;1.80;;
12784;SDS011;6456;42.680;23.260;2022-07-10T11:43:45;2.30;;;2.20;;
12784;SDS011;6456;42.680;23.260;2022-07-10T11:46:13;2.25;;;2.15;;
12784;SDS011;6456;42.680;23.260;2022-07-10T11:48:42;2.20;;;2.10;;
12784;SDS011;6456;42.680;23.260;2022-07-10T11:51:18;1.80;;;1.70;;
12784;SDS011;6456;42.680;23.260;2022-07-10T11:53:54;3.72;;;2.45;;
12784;SDS011;6456;42.680;23.260;2022-07-10T11:56:25;2.03;;;1.92;;
12784;SDS011;6456;42.680;23.260;2022-07-10T11:58:53;2.38;;;2.00;;
12784;SDS011;6456;42.680;23.260;2022-07-10T12:01:21;3.67;;;1.80;;
12784;SDS011;6456;42.680;23.260;2022-07-10T12:03:56;1.92;;;1.80;;
12784;SDS011;6456;42.680;23.260;2022-07-10T12:06:25;2.70;;;1.70;;
12784;SDS011;6456;42.680;23.260;2022-07-10T12:08:53;2.10;;;1.73;;
12784;SDS011;6456;42.680;23.260;2022-07-10T12:11:21;4.32;;;2.00;;
12784;SDS011;6456;42.680;23.260;2022-07-10T12:13:49;2.72;;;2.13;;
12784;SDS011;6456;42.680;23.260;2022-07-10T12:16:19;2.28;;;1.90;;
12784;SDS011;6456;42.680;23.260;2022-07-10T12:18:46;1.88;;;1.77;;
12784;SDS011;6456;42.680;23.260;2022-07-10T12:21:15;2.33;;;1.70;;
12784;SDS011;6456;42.680;23.260;2022-07-10T12:23:46;2.35;;;1.60;;
12784;SDS011;6456;42.680;23.260;2022-07-10T12:26:14;1.80;;;1.70;;
12784;SDS011;6456;42.680;23.260;2022-07-10T12:28:51;1.80;;;1.70;;
12784;SDS011;6456;42.680;23.260;2022-07-10T12:31:21;2.13;;;1.88;;
12784;SDS011;6456;42.680;23.260;2022-07-10T12:33:52;3.70;;;2.25;;
12784;SDS011;6456;42.680;23.260;2022-07-10T12:36:24;2.50;;;1.90;;
12784;SDS011;6456;42.680;23.260;2022-07-10T12:38:55;1.65;;;1.55;;
12784;SDS011;6456;42.680;23.260;2022-07-10T12:41:24;1.40;;;1.40;;
12784;SDS011;6456;42.680;23.260;2022-07-10T12:43:51;1.65;;;1.55;;
12784;SDS011;6456;42.680;23.260;2022-07-10T12:46:20;2.20;;;1.30;;
12784;SDS011;6456;42.680;23.260;2022-07-10T12:49:00;1.38;;;1.30;;
12784;SDS011;6456;42.680;23.260;2022-07-10T12:51:31;1.58;;;1.38;;
12784;SDS011;6456;42.680;23.260;2022-07-10T12:53:59;1.73;;;1.40;;
12784;SDS011;6456;42.680;23.260;2022-07-10T12:56:31;2.35;;;1.40;;
12784;SDS011;6456;42.680;23.260;2022-07-10T12:59:00;4.22;;;1.50;;
12784;SDS011;6456;42.680;23.260;2022-07-10T13:01:29;1.23;;;1.13;;
12784;SDS011;6456;42.680;23.260;2022-07-10T13:04:06;1.48;;;1.38;;
12784;SDS011;6456;42.680;23.260;2022-07-10T13:06:35;1.90;;;1.20;;
12784;SDS011;6456;42.680;23.260;2022-07-10T13:09:17;1.63;;;1.15;;
12784;SDS011;6456;42.680;23.260;2022-07-10T13:11:45;1.42;;;1.33;;
12784;SDS011;6456;42.680;23.260;2022-07-10T13:14:15;1.50;;;1.23;;
12784;SDS011;6456;42.680;23.260;2022-07-10T13:16:42;2.17;;;1.23;;
12784;SDS011;6456;42.680;23.260;2022-07-10T13:19:09;3.38;;;1.20;;
12784;SDS011;6456;42.680;23.260;2022-07-10T13:21:38;1.60;;;1.50;;
12784;SDS011;6456;42.680;23.260;2022-07-10T13:24:05;1.67;;;1.48;;
12784;SDS011;6456;42.680;23.260;2022-07-10T13:26:32;1.77;;;1.10;;
12784;SDS011;6456;42.680;23.260;2022-07-10T13:28:59;1.35;;;1.13;;
12784;SDS011;6456;42.680;23.260;2022-07-10T13:31:26;1.70;;;1.10;;
12784;SDS011;6456;42.680;23.260;2022-07-10T13:33:53;1.30;;;1.20;;
12784;SDS011;6456;42.680;23.260;2022-07-10T13:36:20;1.50;;;1.40;;
12784;SDS011;6456;42.680;23.260;2022-07-10T13:38:48;1.92;;;1.35;;
12784;SDS011;6456;42.680;23.260;2022-07-10T13:41:17;1.30;;;1.23;;
12784;SDS011;6456;42.680;23.260;2022-07-10T13:43:44;1.30;;;1.25;;
12784;SDS011;6456;42.680;23.260;2022-07-10T13:46:12;1.10;;;1.10;;
12784;SDS011;6456;42.680;23.260;2022-07-10T13:48:38;1.75;;;1.10;;
12784;SDS011;6456;42.680;23.260;2022-07-10T13:51:05;3.28;;;1.38;;
12784;SDS011;6456;42.680;23.260;2022-07-10T13:53:33;2.53;;;1.15;;
12784;SDS011;6456;42.680;23.260;2022-07-10T13:56:01;2.40;;;1.30;;
12784;SDS011;6456;42.680;23.260;2022-07-10T13:58:31;2.72;;;1.15;;
12784;SDS011;6456;42.680;23.260;2022-07-10T14:00:58;1.75;;;1.20;;
12784;SDS011;6456;42.680;23.260;2022-07-10T14:03:25;1.75;;;1.05;;
12784;SDS011;6456;42.680;23.260;2022-07-10T14:05:52;1.20;;;1.20;;
12784;SDS011;6456;42.680;23.260;2022-07-10T14:08:19;2.50;;;1.50;;
12784;SDS011;6456;42.680;23.260;2022-07-10T14:10:46;3.45;;;1.60;;
12784;SDS011;6456;42.680;23.260;2022-07-10T14:13:15;1.60;;;1.33;;
12784;SDS011;6456;42.680;23.260;2022-07-10T14:15:42;1.00;;;1.00;;
12784;SDS011;6456;42.680;23.260;2022-07-10T14:18:10;1.20;;;1.20;;
12784;SDS011;6456;42.680;23.260;2022-07-10T14:20:37;2.67;;;1.27;;
12784;SDS011;6456;42.680;23.260;2022-07-10T14:23:22;1.33;;;1.23;;
12784;SDS011;6456;42.680;23.260;2022-07-10T14:25:48;1.58;;;1.10;;
12784;SDS011;6456;42.680;23.260;2022-07-10T14:28:17;1.73;;;1.38;;
12784;SDS011;6456;42.680;23.260;2022-07-10T14:30:44;1.80;;;1.30;;
12784;SDS011;6456;42.680;23.260;2022-07-10T14:33:11;1.20;;;1.10;;
12784;SDS011;6456;42.680;23.260;2022-07-10T14:35:38;1.20;;;1.10;;
12784;SDS011;6456;42.680;23.260;2022-07-10T14:38:05;1.23;;;1.10;;
12784;SDS011;6456;42.680;23.260;2022-07-10T14:40:32;2.22;;;1.40;;
12784;SDS011;6456;42.680;23.260;2022-07-10T14:42:59;2.50;;;1.40;;
12784;SDS011;6456;42.680;23.260;2022-07-10T14:45:28;1.45;;;1.35;;
12784;SDS011;6456;42.680;23.260;2022-07-10T14:47:55;2.13;;;1.30;;
12784;SDS011;6456;42.680;23.260;2022-07-10T14:50:23;2.47;;;1.67;;
12784;SDS011;6456;42.680;23.260;2022-07-10T14:52:51;1.65;;;1.35;;
12784;SDS011;6456;42.680;23.260;2022-07-10T14:55:18;1.23;;;1.13;;
12784;SDS011;6456;42.680;23.260;2022-07-10T14:57:45;2.83;;;1.35;;
12784;SDS011;6456;42.680;23.260;2022-07-10T15:00:13;2.63;;;1.60;;
12784;SDS011;6456;42.680;23.260;2022-07-10T15:02:43;1.40;;;1.30;;
12784;SDS011;6456;42.680;23.260;2022-07-10T15:05:10;3.05;;;1.20;;